sensor_id;sensor_type;location;lat;lon;timestamp;temperature;humidity
42715;DHT22;28351;51.480;5.706;2023-05-10T00:00:36;13.00;99.90
42715;DHT22;28351;51.480;5.706;2023-05-10T00:03:01;13.00;99.90
42715;DHT22;28351;51.480;5.706;2023-05-10T00:05:32;12.90;99.90
42715;DHT22;28351;51.480;5.706;2023-05-10T00:07:58;12.90;99.90
42715;DHT22;28351;51.480;5.706;2023-05-10T00:10:23;12.90;99.90
42715;DHT22;28351;51.480;5.706;2023-05-10T00:12:49;12.90;99.90
42715;DHT22;28351;51.480;5.706;2023-05-10T00:15:14;12.90;99.90
42715;DHT22;28351;51.480;5.706;2023-05-10T00:17:40;12.90;99.90
42715;DHT22;28351;51.480;5.706;2023-05-10T00:20:06;12.90;99.90
42715;DHT22;28351;51.480;5.706;2023-05-10T00:22:32;12.90;99.90
42715;DHT22;28351;51.480;5.706;2023-05-10T00:24:58;12.90;99.90
42715;DHT22;28351;51.480;5.706;2023-05-10T00:27:24;12.90;99.90
42715;DHT22;28351;51.480;5.706;2023-05-10T00:29:50;12.90;99.90
42715;DHT22;28351;51.480;5.706;2023-05-10T00:32:15;12.80;99.90
42715;DHT22;28351;51.480;5.706;2023-05-10T00:34:41;12.80;99.90
42715;DHT22;28351;51.480;5.706;2023-05-10T00:37:07;12.80;99.90
42715;DHT22;28351;51.480;5.706;2023-05-10T00:39:33;12.80;99.90
42715;DHT22;28351;51.480;5.706;2023-05-10T00:41:58;12.80;99.90
42715;DHT22;28351;51.480;5.706;2023-05-10T00:44:25;12.80;99.90
42715;DHT22;28351;51.480;5.706;2023-05-10T00:46:51;12.80;99.90
42715;DHT22;28351;51.480;5.706;2023-05-10T00:49:16;12.70;99.90
42715;DHT22;28351;51.480;5.706;2023-05-10T00:51:42;12.70;99.90
42715;DHT22;28351;51.480;5.706;2023-05-10T00:54:12;12.70;99.90
42715;DHT22;28351;51.480;5.706;2023-05-10T00:56:39;12.60;99.90
42715;DHT22;28351;51.480;5.706;2023-05-10T00:59:05;12.70;99.90
42715;DHT22;28351;51.480;5.706;2023-05-10T01:01:31;12.70;99.90
42715;DHT22;28351;51.480;5.706;2023-05-10T01:03:58;12.70;99.90
42715;DHT22;28351;51.480;5.706;2023-05-10T01:06:23;12.70;99.90
42715;DHT22;28351;51.480;5.706;2023-05-10T01:08:49;12.70;99.90
42715;DHT22;28351;51.480;5.706;2023-05-10T01:11:15;12.70;99.90
42715;DHT22;28351;51.480;5.706;2023-05-10T01:13:42;12.80;99.90
42715;DHT22;28351;51.480;5.706;2023-05-10T01:16:08;12.80;99.90
42715;DHT22;28351;51.480;5.706;2023-05-10T01:18:38;12.70;99.90
42715;DHT22;28351;51.480;5.706;2023-05-10T01:30:05;12.60;99.90
42715;DHT22;28351;51.480;5.706;2023-05-10T01:35:43;12.50;99.90
42715;DHT22;28351;51.480;5.706;2023-05-10T01:38:22;12.60;99.90
42715;DHT22;28351;51.480;5.706;2023-05-10T01:43:39;12.70;99.90
42715;DHT22;28351;51.480;5.706;2023-05-10T01:46:10;12.80;99.90
42715;DHT22;28351;51.480;5.706;2023-05-10T01:48:47;12.80;99.90
42715;DHT22;28351;51.480;5.706;2023-05-10T01:51:19;12.80;99.90
42715;DHT22;28351;51.480;5.706;2023-05-10T01:53:46;12.80;99.90
42715;DHT22;28351;51.480;5.706;2023-05-10T01:56:14;12.90;99.90
42715;DHT22;28351;51.480;5.706;2023-05-10T01:58:43;12.90;99.90
42715;DHT22;28351;51.480;5.706;2023-05-10T02:01:11;12.90;99.90
42715;DHT22;28351;51.480;5.706;2023-05-10T02:03:38;12.90;99.90
42715;DHT22;28351;51.480;5.706;2023-05-10T02:06:05;13.00;99.90
42715;DHT22;28351;51.480;5.706;2023-05-10T02:08:33;13.00;99.90
42715;DHT22;28351;51.480;5.706;2023-05-10T02:11:01;13.00;99.90
42715;DHT22;28351;51.480;5.706;2023-05-10T02:13:28;13.00;99.90
42715;DHT22;28351;51.480;5.706;2023-05-10T02:15:55;13.00;99.90
42715;DHT22;28351;51.480;5.706;2023-05-10T02:18:23;13.00;99.90
42715;DHT22;28351;51.480;5.706;2023-05-10T02:20:50;13.00;99.90
42715;DHT22;28351;51.480;5.706;2023-05-10T02:23:18;13.10;99.90
42715;DHT22;28351;51.480;5.706;2023-05-10T02:25:44;13.10;99.90
42715;DHT22;28351;51.480;5.706;2023-05-10T02:28:12;13.10;99.90
42715;DHT22;28351;51.480;5.706;2023-05-10T02:30:39;13.10;99.90
42715;DHT22;28351;51.480;5.706;2023-05-10T02:33:05;13.10;99.90
42715;DHT22;28351;51.480;5.706;2023-05-10T02:35:32;13.10;99.90
42715;DHT22;28351;51.480;5.706;2023-05-10T02:37:59;13.10;99.90
42715;DHT22;28351;51.480;5.706;2023-05-10T02:40:25;13.10;99.90
42715;DHT22;28351;51.480;5.706;2023-05-10T02:42:54;13.10;99.90
42715;DHT22;28351;51.480;5.706;2023-05-10T02:45:24;13.20;99.90
42715;DHT22;28351;51.480;5.706;2023-05-10T02:47:51;13.10;99.90
42715;DHT22;28351;51.480;5.706;2023-05-10T02:50:18;13.10;99.90
42715;DHT22;28351;51.480;5.706;2023-05-10T02:52:50;13.10;99.90
42715;DHT22;28351;51.480;5.706;2023-05-10T02:55:21;13.10;99.90
42715;DHT22;28351;51.480;5.706;2023-05-10T02:58:00;13.10;99.90
42715;DHT22;28351;51.480;5.706;2023-05-10T03:00:26;13.10;99.90
42715;DHT22;28351;51.480;5.706;2023-05-10T03:02:52;13.10;99.90
42715;DHT22;28351;51.480;5.706;2023-05-10T03:05:18;13.20;99.90
42715;DHT22;28351;51.480;5.706;2023-05-10T03:07:45;13.20;99.90
42715;DHT22;28351;51.480;5.706;2023-05-10T03:10:11;13.20;99.90
42715;DHT22;28351;51.480;5.706;2023-05-10T03:12:52;13.20;99.90
42715;DHT22;28351;51.480;5.706;2023-05-10T03:18:21;13.20;99.90
42715;DHT22;28351;51.480;5.706;2023-05-10T03:20:49;13.20;99.90
42715;DHT22;28351;51.480;5.706;2023-05-10T03:23:22;13.20;99.90
42715;DHT22;28351;51.480;5.706;2023-05-10T03:25:50;13.20;99.90
42715;DHT22;28351;51.480;5.706;2023-05-10T03:28:16;13.20;99.90
42715;DHT22;28351;51.480;5.706;2023-05-10T03:30:43;13.10;99.90
42715;DHT22;28351;51.480;5.706;2023-05-10T03:33:09;13.10;99.90
42715;DHT22;28351;51.480;5.706;2023-05-10T03:35:34;13.10;99.90
42715;DHT22;28351;51.480;5.706;2023-05-10T03:38:01;13.10;99.90
42715;DHT22;28351;51.480;5.706;2023-05-10T03:40:30;13.10;99.90
42715;DHT22;28351;51.480;5.706;2023-05-10T03:42:57;13.10;99.90
42715;DHT22;28351;51.480;5.706;2023-05-10T03:45:23;13.10;99.90
42715;DHT22;28351;51.480;5.706;2023-05-10T03:47:49;13.10;99.90
42715;DHT22;28351;51.480;5.706;2023-05-10T03:50:14;13.10;99.90
42715;DHT22;28351;51.480;5.706;2023-05-10T03:52:40;13.00;99.90
42715;DHT22;28351;51.480;5.706;2023-05-10T03:55:06;13.10;99.90
42715;DHT22;28351;51.480;5.706;2023-05-10T03:57:33;13.00;99.90
42715;DHT22;28351;51.480;5.706;2023-05-10T03:59:59;13.10;99.90
42715;DHT22;28351;51.480;5.706;2023-05-10T04:02:25;13.00;99.90
42715;DHT22;28351;51.480;5.706;2023-05-10T04:04:51;13.10;99.90
42715;DHT22;28351;51.480;5.706;2023-05-10T04:07:16;13.10;99.90
42715;DHT22;28351;51.480;5.706;2023-05-10T04:09:42;13.10;99.90
42715;DHT22;28351;51.480;5.706;2023-05-10T04:12:07;13.00;99.90
42715;DHT22;28351;51.480;5.706;2023-05-10T04:14:33;13.10;99.90
42715;DHT22;28351;51.480;5.706;2023-05-10T04:16:59;13.10;99.90
42715;DHT22;28351;51.480;5.706;2023-05-10T04:19:32;13.00;99.90
42715;DHT22;28351;51.480;5.706;2023-05-10T04:21:58;13.00;99.90
42715;DHT22;28351;51.480;5.706;2023-05-10T04:24:23;13.10;99.90
42715;DHT22;28351;51.480;5.706;2023-05-10T04:26:49;13.10;99.90
42715;DHT22;28351;51.480;5.706;2023-05-10T04:29:15;13.10;99.90
42715;DHT22;28351;51.480;5.706;2023-05-10T04:31:40;13.10;99.90
42715;DHT22;28351;51.480;5.706;2023-05-10T04:34:06;13.10;99.90
42715;DHT22;28351;51.480;5.706;2023-05-10T04:36:31;13.10;99.90
42715;DHT22;28351;51.480;5.706;2023-05-10T04:39:02;13.20;99.90
42715;DHT22;28351;51.480;5.706;2023-05-10T04:41:28;13.10;99.90
42715;DHT22;28351;51.480;5.706;2023-05-10T04:43:56;13.10;99.90
42715;DHT22;28351;51.480;5.706;2023-05-10T04:46:22;13.20;99.90
42715;DHT22;28351;51.480;5.706;2023-05-10T04:48:58;13.20;99.90
42715;DHT22;28351;51.480;5.706;2023-05-10T04:51:23;13.20;99.90
42715;DHT22;28351;51.480;5.706;2023-05-10T04:53:52;13.10;99.90
42715;DHT22;28351;51.480;5.706;2023-05-10T04:56:17;13.10;99.90
42715;DHT22;28351;51.480;5.706;2023-05-10T04:58:43;13.10;99.90
42715;DHT22;28351;51.480;5.706;2023-05-10T05:01:09;13.10;99.90
42715;DHT22;28351;51.480;5.706;2023-05-10T05:03:37;13.10;99.90
42715;DHT22;28351;51.480;5.706;2023-05-10T05:06:02;13.10;99.90
42715;DHT22;28351;51.480;5.706;2023-05-10T05:08:28;13.00;99.90
42715;DHT22;28351;51.480;5.706;2023-05-10T05:10:54;13.00;99.90
42715;DHT22;28351;51.480;5.706;2023-05-10T05:13:20;13.00;99.90
42715;DHT22;28351;51.480;5.706;2023-05-10T05:15:47;13.00;99.90
42715;DHT22;28351;51.480;5.706;2023-05-10T05:18:14;13.00;99.90
42715;DHT22;28351;51.480;5.706;2023-05-10T05:20:40;13.10;99.90
42715;DHT22;28351;51.480;5.706;2023-05-10T05:23:05;13.10;99.90
42715;DHT22;28351;51.480;5.706;2023-05-10T05:25:31;13.10;99.90
42715;DHT22;28351;51.480;5.706;2023-05-10T05:27:57;13.10;99.90
42715;DHT22;28351;51.480;5.706;2023-05-10T05:30:22;13.10;99.90
42715;DHT22;28351;51.480;5.706;2023-05-10T05:32:48;13.00;99.90
42715;DHT22;28351;51.480;5.706;2023-05-10T05:35:14;13.00;99.90
42715;DHT22;28351;51.480;5.706;2023-05-10T05:37:39;13.00;99.90
42715;DHT22;28351;51.480;5.706;2023-05-10T05:40:05;13.00;99.90
42715;DHT22;28351;51.480;5.706;2023-05-10T05:42:31;12.90;99.90
42715;DHT22;28351;51.480;5.706;2023-05-10T05:45:00;13.10;99.90
42715;DHT22;28351;51.480;5.706;2023-05-10T05:47:25;13.20;99.90
42715;DHT22;28351;51.480;5.706;2023-05-10T05:49:51;13.20;99.90
42715;DHT22;28351;51.480;5.706;2023-05-10T05:52:16;13.30;99.90
42715;DHT22;28351;51.480;5.706;2023-05-10T05:54:43;13.30;99.90
42715;DHT22;28351;51.480;5.706;2023-05-10T05:57:10;13.30;99.90
42715;DHT22;28351;51.480;5.706;2023-05-10T05:59:35;13.30;99.90
42715;DHT22;28351;51.480;5.706;2023-05-10T06:02:02;13.30;99.90
42715;DHT22;28351;51.480;5.706;2023-05-10T06:04:46;13.40;99.90
42715;DHT22;28351;51.480;5.706;2023-05-10T06:07:31;13.40;99.90
42715;DHT22;28351;51.480;5.706;2023-05-10T06:09:57;13.60;99.90
42715;DHT22;28351;51.480;5.706;2023-05-10T06:12:23;13.60;99.90
42715;DHT22;28351;51.480;5.706;2023-05-10T06:14:48;13.60;99.90
42715;DHT22;28351;51.480;5.706;2023-05-10T06:17:14;13.60;99.90
42715;DHT22;28351;51.480;5.706;2023-05-10T06:19:50;13.60;99.90
42715;DHT22;28351;51.480;5.706;2023-05-10T06:22:15;13.50;99.90
42715;DHT22;28351;51.480;5.706;2023-05-10T06:24:41;13.40;99.90
42715;DHT22;28351;51.480;5.706;2023-05-10T06:27:07;13.50;99.90
42715;DHT22;28351;51.480;5.706;2023-05-10T06:29:32;13.40;99.90
42715;DHT22;28351;51.480;5.706;2023-05-10T06:31:58;13.40;99.90
42715;DHT22;28351;51.480;5.706;2023-05-10T06:34:24;13.40;99.90
42715;DHT22;28351;51.480;5.706;2023-05-10T06:36:50;13.50;99.90
42715;DHT22;28351;51.480;5.706;2023-05-10T06:39:15;13.60;99.90
42715;DHT22;28351;51.480;5.706;2023-05-10T06:41:41;13.60;99.90
42715;DHT22;28351;51.480;5.706;2023-05-10T06:44:07;13.60;99.90
42715;DHT22;28351;51.480;5.706;2023-05-10T06:46:33;13.70;99.90
42715;DHT22;28351;51.480;5.706;2023-05-10T06:48:59;13.70;99.90
42715;DHT22;28351;51.480;5.706;2023-05-10T06:51:25;13.60;99.90
42715;DHT22;28351;51.480;5.706;2023-05-10T06:53:51;13.60;99.90
42715;DHT22;28351;51.480;5.706;2023-05-10T06:56:17;13.70;99.90
42715;DHT22;28351;51.480;5.706;2023-05-10T06:58:43;13.70;99.90
42715;DHT22;28351;51.480;5.706;2023-05-10T07:01:09;13.70;99.90
42715;DHT22;28351;51.480;5.706;2023-05-10T07:03:35;13.80;99.90
42715;DHT22;28351;51.480;5.706;2023-05-10T07:06:02;13.70;99.90
42715;DHT22;28351;51.480;5.706;2023-05-10T07:08:35;13.80;99.90
42715;DHT22;28351;51.480;5.706;2023-05-10T07:11:05;13.80;99.90
42715;DHT22;28351;51.480;5.706;2023-05-10T07:13:33;13.90;99.90
42715;DHT22;28351;51.480;5.706;2023-05-10T07:15:59;14.00;99.90
42715;DHT22;28351;51.480;5.706;2023-05-10T07:18:26;14.00;99.90
42715;DHT22;28351;51.480;5.706;2023-05-10T07:20:51;13.90;99.90
42715;DHT22;28351;51.480;5.706;2023-05-10T07:23:17;13.90;99.90
42715;DHT22;28351;51.480;5.706;2023-05-10T07:25:50;13.90;99.90
42715;DHT22;28351;51.480;5.706;2023-05-10T07:28:18;13.90;99.90
42715;DHT22;28351;51.480;5.706;2023-05-10T07:30:44;13.80;99.90
42715;DHT22;28351;51.480;5.706;2023-05-10T07:33:12;13.80;99.90
42715;DHT22;28351;51.480;5.706;2023-05-10T07:35:38;13.90;99.90
42715;DHT22;28351;51.480;5.706;2023-05-10T07:38:03;13.90;99.90
42715;DHT22;28351;51.480;5.706;2023-05-10T07:40:29;13.90;99.90
42715;DHT22;28351;51.480;5.706;2023-05-10T07:42:55;13.90;99.90
42715;DHT22;28351;51.480;5.706;2023-05-10T07:45:21;14.10;99.90
42715;DHT22;28351;51.480;5.706;2023-05-10T07:47:47;14.20;99.90
42715;DHT22;28351;51.480;5.706;2023-05-10T07:50:13;14.30;99.90
42715;DHT22;28351;51.480;5.706;2023-05-10T07:52:39;14.30;99.90
42715;DHT22;28351;51.480;5.706;2023-05-10T07:55:05;14.40;99.90
42715;DHT22;28351;51.480;5.706;2023-05-10T07:57:35;14.40;99.90
42715;DHT22;28351;51.480;5.706;2023-05-10T08:00:01;14.30;99.90
42715;DHT22;28351;51.480;5.706;2023-05-10T08:02:26;14.30;99.90
42715;DHT22;28351;51.480;5.706;2023-05-10T08:04:52;14.30;99.90
42715;DHT22;28351;51.480;5.706;2023-05-10T08:07:18;14.10;99.90
42715;DHT22;28351;51.480;5.706;2023-05-10T08:09:43;14.00;99.90
42715;DHT22;28351;51.480;5.706;2023-05-10T08:12:09;14.00;99.90
42715;DHT22;28351;51.480;5.706;2023-05-10T08:14:36;14.10;99.90
42715;DHT22;28351;51.480;5.706;2023-05-10T08:17:02;14.10;99.90
42715;DHT22;28351;51.480;5.706;2023-05-10T08:19:28;14.10;99.90
42715;DHT22;28351;51.480;5.706;2023-05-10T08:21:54;14.10;99.90
42715;DHT22;28351;51.480;5.706;2023-05-10T08:24:21;14.00;99.90
42715;DHT22;28351;51.480;5.706;2023-05-10T08:26:47;14.00;99.90
42715;DHT22;28351;51.480;5.706;2023-05-10T08:29:13;14.00;99.90
42715;DHT22;28351;51.480;5.706;2023-05-10T08:31:39;14.00;99.90
42715;DHT22;28351;51.480;5.706;2023-05-10T08:34:04;14.10;99.90
42715;DHT22;28351;51.480;5.706;2023-05-10T08:36:30;13.90;99.90
42715;DHT22;28351;51.480;5.706;2023-05-10T08:42:25;14.00;99.90
42715;DHT22;28351;51.480;5.706;2023-05-10T08:44:54;13.90;99.90
42715;DHT22;28351;51.480;5.706;2023-05-10T08:47:20;13.80;99.90
42715;DHT22;28351;51.480;5.706;2023-05-10T08:49:47;13.90;99.90
42715;DHT22;28351;51.480;5.706;2023-05-10T08:52:17;13.80;99.90
42715;DHT22;28351;51.480;5.706;2023-05-10T08:54:43;13.90;99.90
42715;DHT22;28351;51.480;5.706;2023-05-10T08:57:10;13.90;99.90
42715;DHT22;28351;51.480;5.706;2023-05-10T08:59:36;13.80;99.90
42715;DHT22;28351;51.480;5.706;2023-05-10T09:02:04;13.80;99.90
42715;DHT22;28351;51.480;5.706;2023-05-10T09:04:30;13.90;99.90
42715;DHT22;28351;51.480;5.706;2023-05-10T09:06:56;14.00;99.90
42715;DHT22;28351;51.480;5.706;2023-05-10T09:09:23;14.00;99.90
42715;DHT22;28351;51.480;5.706;2023-05-10T09:11:49;14.00;99.90
42715;DHT22;28351;51.480;5.706;2023-05-10T09:14:18;14.10;99.90
42715;DHT22;28351;51.480;5.706;2023-05-10T09:16:45;14.20;99.90
42715;DHT22;28351;51.480;5.706;2023-05-10T09:19:11;14.20;99.90
42715;DHT22;28351;51.480;5.706;2023-05-10T09:21:37;14.30;99.90
42715;DHT22;28351;51.480;5.706;2023-05-10T09:24:06;14.30;99.90
42715;DHT22;28351;51.480;5.706;2023-05-10T09:26:32;14.50;99.90
42715;DHT22;28351;51.480;5.706;2023-05-10T09:28:58;14.50;99.90
42715;DHT22;28351;51.480;5.706;2023-05-10T09:31:25;14.60;99.90
42715;DHT22;28351;51.480;5.706;2023-05-10T09:34:08;14.90;99.90
42715;DHT22;28351;51.480;5.706;2023-05-10T09:36:33;15.20;99.90
42715;DHT22;28351;51.480;5.706;2023-05-10T09:38:59;15.20;99.90
42715;DHT22;28351;51.480;5.706;2023-05-10T09:41:25;15.30;99.90
42715;DHT22;28351;51.480;5.706;2023-05-10T09:43:56;15.60;99.90
42715;DHT22;28351;51.480;5.706;2023-05-10T09:46:22;15.90;99.90
42715;DHT22;28351;51.480;5.706;2023-05-10T09:48:48;16.60;99.90
42715;DHT22;28351;51.480;5.706;2023-05-10T09:51:21;16.80;99.90
42715;DHT22;28351;51.480;5.706;2023-05-10T09:53:47;16.90;99.90
42715;DHT22;28351;51.480;5.706;2023-05-10T09:56:12;17.30;99.90
42715;DHT22;28351;51.480;5.706;2023-05-10T09:58:39;17.50;99.90
42715;DHT22;28351;51.480;5.706;2023-05-10T10:01:10;17.20;99.90
42715;DHT22;28351;51.480;5.706;2023-05-10T10:03:42;16.90;99.90
42715;DHT22;28351;51.480;5.706;2023-05-10T10:06:09;16.90;99.90
42715;DHT22;28351;51.480;5.706;2023-05-10T10:08:34;16.60;99.90
42715;DHT22;28351;51.480;5.706;2023-05-10T10:11:00;16.40;99.90
42715;DHT22;28351;51.480;5.706;2023-05-10T10:13:26;16.30;99.90
42715;DHT22;28351;51.480;5.706;2023-05-10T10:15:54;16.70;99.90
42715;DHT22;28351;51.480;5.706;2023-05-10T10:18:20;17.20;99.90
42715;DHT22;28351;51.480;5.706;2023-05-10T10:20:53;17.70;99.90
42715;DHT22;28351;51.480;5.706;2023-05-10T10:23:19;18.00;99.90
42715;DHT22;28351;51.480;5.706;2023-05-10T10:25:51;18.30;99.90
42715;DHT22;28351;51.480;5.706;2023-05-10T10:31:01;18.20;99.90
42715;DHT22;28351;51.480;5.706;2023-05-10T10:36:03;18.10;99.90
42715;DHT22;28351;51.480;5.706;2023-05-10T10:41:54;17.60;99.90
42715;DHT22;28351;51.480;5.706;2023-05-10T10:44:38;17.20;99.90
42715;DHT22;28351;51.480;5.706;2023-05-10T10:49:50;16.70;99.90
42715;DHT22;28351;51.480;5.706;2023-05-10T10:52:40;16.50;99.90
42715;DHT22;28351;51.480;5.706;2023-05-10T10:55:11;16.40;99.90
42715;DHT22;28351;51.480;5.706;2023-05-10T10:57:49;16.70;99.90
42715;DHT22;28351;51.480;5.706;2023-05-10T11:00:28;17.20;99.90
42715;DHT22;28351;51.480;5.706;2023-05-10T11:02:57;17.50;99.90
42715;DHT22;28351;51.480;5.706;2023-05-10T11:05:45;17.30;99.90
42715;DHT22;28351;51.480;5.706;2023-05-10T11:13:31;18.90;99.90
42715;DHT22;28351;51.480;5.706;2023-05-10T11:15:58;19.40;99.90
42715;DHT22;28351;51.480;5.706;2023-05-10T11:18:26;20.10;99.90
42715;DHT22;28351;51.480;5.706;2023-05-10T11:21:00;20.00;99.90
42715;DHT22;28351;51.480;5.706;2023-05-10T11:23:32;20.20;99.90
42715;DHT22;28351;51.480;5.706;2023-05-10T11:30:00;20.50;99.90
42715;DHT22;28351;51.480;5.706;2023-05-10T11:32:26;19.90;99.90
42715;DHT22;28351;51.480;5.706;2023-05-10T11:34:55;19.70;99.90
42715;DHT22;28351;51.480;5.706;2023-05-10T11:37:20;19.60;99.90
42715;DHT22;28351;51.480;5.706;2023-05-10T11:39:46;19.30;99.90
42715;DHT22;28351;51.480;5.706;2023-05-10T11:42:14;18.90;99.90
42715;DHT22;28351;51.480;5.706;2023-05-10T11:44:40;18.40;99.90
42715;DHT22;28351;51.480;5.706;2023-05-10T11:47:12;18.30;99.90
42715;DHT22;28351;51.480;5.706;2023-05-10T11:49:43;18.10;99.90
42715;DHT22;28351;51.480;5.706;2023-05-10T11:52:15;18.20;99.90
42715;DHT22;28351;51.480;5.706;2023-05-10T11:54:53;18.00;99.90
42715;DHT22;28351;51.480;5.706;2023-05-10T11:57:20;18.10;99.90
42715;DHT22;28351;51.480;5.706;2023-05-10T11:59:53;17.80;99.90
42715;DHT22;28351;51.480;5.706;2023-05-10T12:02:20;18.20;99.90
42715;DHT22;28351;51.480;5.706;2023-05-10T12:04:46;18.50;99.90
42715;DHT22;28351;51.480;5.706;2023-05-10T12:17:45;20.10;99.90
42715;DHT22;28351;51.480;5.706;2023-05-10T12:20:22;20.20;99.90
42715;DHT22;28351;51.480;5.706;2023-05-10T12:22:56;19.60;99.90
42715;DHT22;28351;51.480;5.706;2023-05-10T12:25:38;18.80;99.90
42715;DHT22;28351;51.480;5.706;2023-05-10T12:28:10;18.70;99.90
42715;DHT22;28351;51.480;5.706;2023-05-10T12:30:36;18.70;99.90
42715;DHT22;28351;51.480;5.706;2023-05-10T12:33:08;18.40;99.90
42715;DHT22;28351;51.480;5.706;2023-05-10T12:35:48;17.60;99.90
42715;DHT22;28351;51.480;5.706;2023-05-10T12:38:36;17.00;99.90
42715;DHT22;28351;51.480;5.706;2023-05-10T12:41:07;16.50;99.90
42715;DHT22;28351;51.480;5.706;2023-05-10T12:43:34;16.30;99.90
42715;DHT22;28351;51.480;5.706;2023-05-10T12:46:10;16.10;99.90
42715;DHT22;28351;51.480;5.706;2023-05-10T12:48:37;15.90;99.90
42715;DHT22;28351;51.480;5.706;2023-05-10T12:51:03;15.80;99.90
42715;DHT22;28351;51.480;5.706;2023-05-10T12:53:30;15.70;99.90
42715;DHT22;28351;51.480;5.706;2023-05-10T12:55:58;15.60;99.90
42715;DHT22;28351;51.480;5.706;2023-05-10T12:58:24;15.60;99.90
42715;DHT22;28351;51.480;5.706;2023-05-10T13:00:50;15.60;99.90
42715;DHT22;28351;51.480;5.706;2023-05-10T13:03:17;15.70;99.90
42715;DHT22;28351;51.480;5.706;2023-05-10T13:05:42;15.70;99.90
42715;DHT22;28351;51.480;5.706;2023-05-10T13:08:08;15.80;99.90
42715;DHT22;28351;51.480;5.706;2023-05-10T13:10:36;15.70;99.90
42715;DHT22;28351;51.480;5.706;2023-05-10T13:13:02;15.80;99.90
42715;DHT22;28351;51.480;5.706;2023-05-10T13:15:28;15.90;99.90
42715;DHT22;28351;51.480;5.706;2023-05-10T13:17:54;15.80;99.90
42715;DHT22;28351;51.480;5.706;2023-05-10T13:20:20;16.00;99.90
42715;DHT22;28351;51.480;5.706;2023-05-10T13:22:45;16.20;99.90
42715;DHT22;28351;51.480;5.706;2023-05-10T13:25:12;16.40;99.90
42715;DHT22;28351;51.480;5.706;2023-05-10T13:27:40;16.70;99.90
42715;DHT22;28351;51.480;5.706;2023-05-10T13:30:07;17.20;99.90
42715;DHT22;28351;51.480;5.706;2023-05-10T13:32:33;17.50;99.90
42715;DHT22;28351;51.480;5.706;2023-05-10T13:34:59;17.80;99.90
42715;DHT22;28351;51.480;5.706;2023-05-10T13:37:24;17.60;99.90
42715;DHT22;28351;51.480;5.706;2023-05-10T13:39:50;17.70;99.90
42715;DHT22;28351;51.480;5.706;2023-05-10T13:42:15;17.80;99.90
42715;DHT22;28351;51.480;5.706;2023-05-10T13:44:41;17.60;99.90
42715;DHT22;28351;51.480;5.706;2023-05-10T13:47:07;17.20;99.90
42715;DHT22;28351;51.480;5.706;2023-05-10T13:49:32;17.00;99.90
42715;DHT22;28351;51.480;5.706;2023-05-10T13:51:59;16.80;99.90
42715;DHT22;28351;51.480;5.706;2023-05-10T13:54:38;16.70;99.90
42715;DHT22;28351;51.480;5.706;2023-05-10T13:57:03;16.50;99.90
42715;DHT22;28351;51.480;5.706;2023-05-10T13:59:30;16.10;99.90
42715;DHT22;28351;51.480;5.706;2023-05-10T14:01:57;15.90;99.90
42715;DHT22;28351;51.480;5.706;2023-05-10T14:04:23;15.70;99.90
42715;DHT22;28351;51.480;5.706;2023-05-10T14:06:52;15.60;99.90
42715;DHT22;28351;51.480;5.706;2023-05-10T14:09:18;15.80;99.90
42715;DHT22;28351;51.480;5.706;2023-05-10T14:11:43;16.00;99.90
42715;DHT22;28351;51.480;5.706;2023-05-10T14:14:10;16.00;99.90
42715;DHT22;28351;51.480;5.706;2023-05-10T14:16:36;16.00;99.90
42715;DHT22;28351;51.480;5.706;2023-05-10T14:19:01;15.80;99.90
42715;DHT22;28351;51.480;5.706;2023-05-10T14:21:27;15.60;99.90
42715;DHT22;28351;51.480;5.706;2023-05-10T14:23:56;15.40;99.90
42715;DHT22;28351;51.480;5.706;2023-05-10T14:26:22;15.30;99.90
42715;DHT22;28351;51.480;5.706;2023-05-10T14:28:48;15.20;99.90
42715;DHT22;28351;51.480;5.706;2023-05-10T14:31:13;15.30;99.90
42715;DHT22;28351;51.480;5.706;2023-05-10T14:33:40;15.20;99.90
42715;DHT22;28351;51.480;5.706;2023-05-10T14:36:06;15.20;99.90
42715;DHT22;28351;51.480;5.706;2023-05-10T14:38:32;15.00;99.90
42715;DHT22;28351;51.480;5.706;2023-05-10T14:40:58;14.90;99.90
42715;DHT22;28351;51.480;5.706;2023-05-10T14:43:23;14.80;99.90
42715;DHT22;28351;51.480;5.706;2023-05-10T14:45:49;14.60;99.90
42715;DHT22;28351;51.480;5.706;2023-05-10T14:48:15;14.50;99.90
42715;DHT22;28351;51.480;5.706;2023-05-10T14:50:43;14.50;99.90
42715;DHT22;28351;51.480;5.706;2023-05-10T14:53:09;14.30;99.90
42715;DHT22;28351;51.480;5.706;2023-05-10T14:55:35;14.30;99.90
42715;DHT22;28351;51.480;5.706;2023-05-10T14:58:04;14.30;99.90
42715;DHT22;28351;51.480;5.706;2023-05-10T15:00:38;14.40;99.90
42715;DHT22;28351;51.480;5.706;2023-05-10T15:03:03;14.40;99.90
42715;DHT22;28351;51.480;5.706;2023-05-10T15:05:29;14.50;99.90
42715;DHT22;28351;51.480;5.706;2023-05-10T15:07:55;14.60;99.90
42715;DHT22;28351;51.480;5.706;2023-05-10T15:10:21;14.60;99.90
42715;DHT22;28351;51.480;5.706;2023-05-10T15:12:46;14.60;99.90
42715;DHT22;28351;51.480;5.706;2023-05-10T15:15:12;14.70;99.90
42715;DHT22;28351;51.480;5.706;2023-05-10T15:17:38;14.70;99.90
42715;DHT22;28351;51.480;5.706;2023-05-10T15:20:03;14.80;99.90
42715;DHT22;28351;51.480;5.706;2023-05-10T15:22:30;14.90;99.90
42715;DHT22;28351;51.480;5.706;2023-05-10T15:24:59;14.90;99.90
42715;DHT22;28351;51.480;5.706;2023-05-10T15:27:25;15.10;99.90
42715;DHT22;28351;51.480;5.706;2023-05-10T15:29:51;15.30;99.90
42715;DHT22;28351;51.480;5.706;2023-05-10T15:32:17;15.30;99.90
42715;DHT22;28351;51.480;5.706;2023-05-10T15:34:42;15.40;99.90
42715;DHT22;28351;51.480;5.706;2023-05-10T15:37:08;15.40;99.90
42715;DHT22;28351;51.480;5.706;2023-05-10T15:39:36;15.40;99.90
42715;DHT22;28351;51.480;5.706;2023-05-10T15:42:11;15.50;99.90
42715;DHT22;28351;51.480;5.706;2023-05-10T15:44:37;15.40;99.90
42715;DHT22;28351;51.480;5.706;2023-05-10T15:47:04;15.40;99.90
42715;DHT22;28351;51.480;5.706;2023-05-10T15:49:30;15.50;99.90
42715;DHT22;28351;51.480;5.706;2023-05-10T15:51:56;15.50;99.90
42715;DHT22;28351;51.480;5.706;2023-05-10T15:54:22;15.30;99.90
42715;DHT22;28351;51.480;5.706;2023-05-10T15:56:48;15.30;99.90
42715;DHT22;28351;51.480;5.706;2023-05-10T15:59:14;15.30;99.90
42715;DHT22;28351;51.480;5.706;2023-05-10T16:01:39;15.30;99.90
42715;DHT22;28351;51.480;5.706;2023-05-10T16:04:05;15.30;99.90
42715;DHT22;28351;51.480;5.706;2023-05-10T16:06:31;15.30;99.90
42715;DHT22;28351;51.480;5.706;2023-05-10T16:08:58;15.30;99.90
42715;DHT22;28351;51.480;5.706;2023-05-10T16:11:23;15.20;99.90
42715;DHT22;28351;51.480;5.706;2023-05-10T16:13:49;15.30;99.90
42715;DHT22;28351;51.480;5.706;2023-05-10T16:16:14;15.30;99.90
42715;DHT22;28351;51.480;5.706;2023-05-10T16:18:40;15.30;99.90
42715;DHT22;28351;51.480;5.706;2023-05-10T16:21:06;15.20;99.90
42715;DHT22;28351;51.480;5.706;2023-05-10T16:23:31;15.10;99.90